createdAt,value
2019-01-27T00:00:44.033Z,93.40
2019-01-27T00:03:12.521Z,93.40
2019-01-27T00:05:41.072Z,93.60
2019-01-27T00:08:13.467Z,93.80
2019-01-27T00:10:37.447Z,93.70
2019-01-27T00:13:05.594Z,93.70
2019-01-27T00:15:33.773Z,93.40
2019-01-27T00:18:02.268Z,93.20
2019-01-27T00:20:30.414Z,93.20
2019-01-27T00:22:58.979Z,93.30
2019-01-27T00:25:29.123Z,93.00
2019-01-27T00:27:57.361Z,93.00
2019-01-27T00:30:25.637Z,93.00
2019-01-27T00:32:58.404Z,93.30
2019-01-27T00:35:26.773Z,93.50
2019-01-27T00:37:55.832Z,93.40
2019-01-27T00:40:28.625Z,93.50
2019-01-27T00:42:57.831Z,93.40
2019-01-27T00:45:26.182Z,93.60
2019-01-27T00:47:55.391Z,93.40
2019-01-27T00:50:23.562Z,93.30
2019-01-27T00:52:51.770Z,93.00
2019-01-27T00:55:20.979Z,93.00
2019-01-27T00:57:49.093Z,93.10
2019-01-27T01:00:21.616Z,93.50
2019-01-27T01:02:51.062Z,93.80
2019-01-27T01:05:20.285Z,93.80
2019-01-27T01:07:48.464Z,94.00
2019-01-27T01:10:17.673Z,94.00
2019-01-27T01:12:45.846Z,93.80
2019-01-27T01:15:13.988Z,93.50
2019-01-27T01:17:42.173Z,93.10
2019-01-27T01:20:13.924Z,92.70
2019-01-27T01:22:42.155Z,92.40
2019-01-27T01:25:13.019Z,92.40
2019-01-27T01:27:41.619Z,92.30
2019-01-27T01:30:11.398Z,91.90
2019-01-27T01:32:39.758Z,91.60
2019-01-27T01:35:09.037Z,91.90
2019-01-27T01:37:37.188Z,92.30
2019-01-27T01:40:08.525Z,93.00
2019-01-27T01:42:37.013Z,92.90
2019-01-27T01:45:08.752Z,92.30
2019-01-27T01:47:36.944Z,91.80
2019-01-27T01:50:07.047Z,91.60
2019-01-27T01:52:35.238Z,92.10
2019-01-27T01:55:03.471Z,92.50
2019-01-27T01:57:33.574Z,92.50
2019-01-27T02:00:08.975Z,92.60
2019-01-27T02:02:37.142Z,92.30
2019-01-27T02:05:05.796Z,92.00
2019-01-27T02:07:38.398Z,91.70
2019-01-27T02:10:06.979Z,91.90
2019-01-27T02:12:35.168Z,92.50
2019-01-27T02:15:04.609Z,92.90
2019-01-27T02:17:32.831Z,93.00
2019-01-27T02:20:01.422Z,92.90
2019-01-27T02:22:30.615Z,92.70
2019-01-27T02:24:58.806Z,92.30
2019-01-27T02:27:46.352Z,92.30
2019-01-27T02:30:15.526Z,92.70
2019-01-27T02:32:47.476Z,92.40
2019-01-27T02:35:15.658Z,92.20
2019-01-27T02:37:43.837Z,92.00
2019-01-27T02:40:12.029Z,92.20
2019-01-27T02:42:40.170Z,92.60
2019-01-27T02:45:08.508Z,92.70
2019-01-27T02:47:37.334Z,92.70
2019-01-27T02:50:05.782Z,92.80
2019-01-27T02:52:34.002Z,92.70
2019-01-27T02:55:04.668Z,92.50
2019-01-27T02:57:34.580Z,92.00
2019-01-27T03:00:03.513Z,91.90
2019-01-27T03:02:32.112Z,91.60
2019-01-27T03:05:00.297Z,92.10
2019-01-27T03:07:33.655Z,92.00
2019-01-27T03:10:01.759Z,91.40
2019-01-27T03:12:30.352Z,91.30
2019-01-27T03:14:58.567Z,91.90
2019-01-27T03:17:26.696Z,92.10
2019-01-27T03:19:54.857Z,92.30
2019-01-27T03:22:23.519Z,92.40
2019-01-27T03:24:52.218Z,92.60
2019-01-27T03:27:20.408Z,92.50
2019-01-27T03:29:48.580Z,92.40
2019-01-27T03:32:16.818Z,92.30
2019-01-27T03:34:45.423Z,92.70
2019-01-27T03:37:13.667Z,92.60
2019-01-27T03:39:41.777Z,92.60
2019-01-27T03:42:23.266Z,92.80
2019-01-27T03:44:51.848Z,92.80
2019-01-27T03:47:20.320Z,92.50
2019-01-27T03:49:48.513Z,92.30
2019-01-27T03:52:17.189Z,92.20
2019-01-27T03:54:45.351Z,92.10
2019-01-27T03:57:13.547Z,91.70
2019-01-27T03:59:42.081Z,91.50
2019-01-27T04:02:10.280Z,91.70
2019-01-27T04:04:38.898Z,91.90
2019-01-27T04:07:07.075Z,91.60
2019-01-27T04:09:37.842Z,91.80
2019-01-27T04:12:06.045Z,92.20
2019-01-27T04:14:34.743Z,92.70
2019-01-27T04:17:03.175Z,92.70
2019-01-27T04:19:34.756Z,92.10
2019-01-27T04:22:03.985Z,92.00
2019-01-27T04:24:32.145Z,92.50
2019-01-27T04:27:01.327Z,92.90
2019-01-27T04:29:29.508Z,92.60
2019-01-27T04:31:57.694Z,92.30
2019-01-27T04:34:25.868Z,92.30
2019-01-27T04:36:54.077Z,92.30
2019-01-27T04:39:22.617Z,92.50
2019-01-27T04:41:50.781Z,92.50
2019-01-27T04:44:19.647Z,92.70
2019-01-27T04:46:47.845Z,92.70
2019-01-27T04:49:21.413Z,92.70
2019-01-27T04:51:49.633Z,92.40
2019-01-27T04:54:22.510Z,92.40
2019-01-27T04:56:50.684Z,92.60
2019-01-27T04:59:18.880Z,92.50
2019-01-27T05:01:49.095Z,92.20
2019-01-27T05:04:29.367Z,92.30
2019-01-27T05:06:57.498Z,92.40
2019-01-27T05:09:25.724Z,92.60
2019-01-27T05:11:54.246Z,92.60
2019-01-27T05:14:22.482Z,92.60
2019-01-27T05:16:50.614Z,92.40
2019-01-27T05:19:19.049Z,92.30
2019-01-27T05:21:47.168Z,91.90
2019-01-27T05:24:15.360Z,91.90
2019-01-27T05:26:43.526Z,92.00
2019-01-27T05:29:11.681Z,91.80
2019-01-27T05:31:39.852Z,91.90
2019-01-27T05:34:09.300Z,91.70
2019-01-27T05:36:37.422Z,91.60
2019-01-27T05:39:07.860Z,91.60
2019-01-27T05:41:36.504Z,91.70
2019-01-27T05:44:04.724Z,91.80
2019-01-27T05:46:32.885Z,91.70
2019-01-27T05:49:01.079Z,91.70
2019-01-27T05:51:29.244Z,91.50
2019-01-27T05:54:03.138Z,91.50
2019-01-27T05:56:31.320Z,91.80
2019-01-27T05:58:59.721Z,91.80
2019-01-27T06:01:28.272Z,91.80
2019-01-27T06:03:56.497Z,91.80
2019-01-27T06:06:24.667Z,91.50
2019-01-27T06:08:52.818Z,91.10
2019-01-27T06:11:21.242Z,91.20
2019-01-27T06:13:49.462Z,91.10
2019-01-27T06:16:17.687Z,91.40
2019-01-27T06:18:46.536Z,91.80
2019-01-27T06:21:15.026Z,91.80
2019-01-27T06:23:43.567Z,91.90
2019-01-27T06:26:12.730Z,92.20
2019-01-27T06:28:41.354Z,92.10
2019-01-27T06:31:09.521Z,91.70
2019-01-27T06:33:56.923Z,92.10
2019-01-27T06:36:25.139Z,91.60
2019-01-27T06:38:53.296Z,91.50
2019-01-27T06:41:21.875Z,91.40
2019-01-27T06:43:50.039Z,91.30
2019-01-27T06:46:18.332Z,91.10
2019-01-27T06:48:46.520Z,91.30
2019-01-27T06:51:14.951Z,90.80
2019-01-27T06:53:43.535Z,91.20
2019-01-27T06:56:11.751Z,91.50
2019-01-27T06:58:57.617Z,91.60
2019-01-27T07:01:47.971Z,91.70
2019-01-27T07:04:40.889Z,92.30
2019-01-27T07:07:27.196Z,92.40
2019-01-27T07:10:13.600Z,92.30
2019-01-27T07:12:55.501Z,92.70
2019-01-27T07:15:42.877Z,92.50
2019-01-27T07:18:29.534Z,92.40
2019-01-27T07:21:06.891Z,92.60
2019-01-27T07:23:52.837Z,92.70
2019-01-27T07:26:32.863Z,92.60
2019-01-27T07:29:28.988Z,92.70
2019-01-27T07:32:25.500Z,93.10
2019-01-27T07:35:05.986Z,93.00
2019-01-27T07:37:46.080Z,92.50
2019-01-27T07:40:32.183Z,92.20
2019-01-27T07:43:38.712Z,91.80
2019-01-27T07:46:14.762Z,92.00
2019-01-27T07:49:01.527Z,92.70
2019-01-27T07:51:52.671Z,92.70
2019-01-27T07:54:30.683Z,92.40
2019-01-27T07:57:30.176Z,92.50
2019-01-27T08:00:20.027Z,92.10
2019-01-27T08:03:11.933Z,92.50
2019-01-27T08:05:45.506Z,92.90
2019-01-27T08:08:33.961Z,92.60
2019-01-27T08:11:24.135Z,92.80
2019-01-27T08:14:14.499Z,93.60
2019-01-27T08:16:52.128Z,93.00
2019-01-27T08:19:40.098Z,92.60
2019-01-27T08:22:36.275Z,92.90
2019-01-27T08:25:32.993Z,92.90
2019-01-27T08:28:12.101Z,92.50
2019-01-27T08:30:47.344Z,92.60
2019-01-27T08:33:38.269Z,92.20
2019-01-27T08:36:24.376Z,92.40
2019-01-27T08:39:10.600Z,92.50
2019-01-27T08:41:55.786Z,92.60
2019-01-27T08:44:42.254Z,92.90
2019-01-27T08:47:10.680Z,92.70
2019-01-27T08:49:38.784Z,92.20
2019-01-27T08:52:06.994Z,92.20
2019-01-27T08:54:35.132Z,92.30
2019-01-27T08:57:03.339Z,92.20
2019-01-27T08:59:32.518Z,92.40
2019-01-27T09:02:18.734Z,92.40
2019-01-27T09:05:08.783Z,92.20
2019-01-27T09:08:08.930Z,92.00
2019-01-27T09:11:05.353Z,92.30
2019-01-27T09:13:43.094Z,92.10
2019-01-27T09:16:29.084Z,91.80
2019-01-27T09:19:07.100Z,91.80
2019-01-27T09:21:51.739Z,91.90
2019-01-27T09:24:34.632Z,91.50
2019-01-27T09:27:18.355Z,91.20
2019-01-27T09:30:05.554Z,91.00
2019-01-27T09:32:53.070Z,91.50
2019-01-27T09:35:44.195Z,91.40
2019-01-27T09:38:30.961Z,91.30
2019-01-27T09:41:18.853Z,91.70
2019-01-27T09:43:54.341Z,91.60
2019-01-27T09:46:41.707Z,91.40
2019-01-27T09:49:35.479Z,91.50
2019-01-27T09:52:14.809Z,91.40
2019-01-27T09:54:51.238Z,90.90
2019-01-27T09:57:27.914Z,91.00
2019-01-27T10:00:06.834Z,91.10
2019-01-27T10:02:45.938Z,91.50
2019-01-27T10:05:37.256Z,91.40
2019-01-27T10:08:15.706Z,91.50
2019-01-27T10:11:03.063Z,91.30
2019-01-27T10:13:56.543Z,91.20
2019-01-27T10:16:31.324Z,91.10
2019-01-27T10:19:15.838Z,91.20
2019-01-27T10:21:52.851Z,90.70
2019-01-27T10:24:52.158Z,90.40
2019-01-27T10:27:42.079Z,90.20
2019-01-27T10:30:45.544Z,90.20
2019-01-27T10:33:35.327Z,90.10
2019-01-27T10:36:25.627Z,90.00
2019-01-27T10:38:59.042Z,90.20
2019-01-27T10:41:36.227Z,90.60
2019-01-27T10:44:26.555Z,90.50
2019-01-27T10:47:16.398Z,90.40
2019-01-27T10:49:49.997Z,90.70
2019-01-27T10:52:38.381Z,90.10
2019-01-27T10:55:19.297Z,90.10
2019-01-27T10:58:07.419Z,90.00
2019-01-27T11:01:07.412Z,88.60
2019-01-27T11:03:58.345Z,87.10
2019-01-27T11:06:48.743Z,87.90
2019-01-27T11:09:36.240Z,87.20
2019-01-27T11:12:36.995Z,87.00
2019-01-27T11:15:21.261Z,86.40
2019-01-27T11:18:19.747Z,85.00
2019-01-27T11:21:09.682Z,83.70
2019-01-27T11:23:55.005Z,84.40
2019-01-27T11:26:46.016Z,83.80
2019-01-27T11:29:29.997Z,84.60
2019-01-27T11:32:32.294Z,85.60
2019-01-27T11:35:32.008Z,84.60
2019-01-27T11:38:24.948Z,84.40
2019-01-27T11:41:09.676Z,84.20
2019-01-27T11:43:49.599Z,85.60
2019-01-27T11:46:23.932Z,85.00
2019-01-27T11:49:07.120Z,83.60
2019-01-27T11:51:42.390Z,84.10
2019-01-27T11:54:10.536Z,82.80
2019-01-27T11:56:40.023Z,81.40
2019-01-27T11:59:08.210Z,82.10
2019-01-27T12:01:36.404Z,81.40
2019-01-27T12:04:04.844Z,81.10
2019-01-27T12:06:34.370Z,81.10
2019-01-27T12:09:02.949Z,81.30
2019-01-27T12:11:31.525Z,81.80
2019-01-27T12:14:00.102Z,81.10
2019-01-27T12:16:33.051Z,81.40
2019-01-27T12:19:01.177Z,79.30
2019-01-27T12:21:35.455Z,79.20
2019-01-27T12:24:03.675Z,78.90
2019-01-27T12:26:31.856Z,79.20
2019-01-27T12:29:00.313Z,81.10
2019-01-27T12:31:28.485Z,81.50
2019-01-27T12:33:57.991Z,80.00
2019-01-27T12:36:26.153Z,80.10
2019-01-27T12:38:54.361Z,80.00
2019-01-27T12:41:22.923Z,82.60
2019-01-27T12:43:52.450Z,87.40
2019-01-27T12:46:20.599Z,80.50
2019-01-27T12:48:48.774Z,78.70
2019-01-27T12:51:18.038Z,79.00
2019-01-27T12:53:47.197Z,80.00
2019-01-27T12:56:15.349Z,80.20
2019-01-27T12:58:43.910Z,80.00
2019-01-27T13:01:13.604Z,79.70
2019-01-27T13:03:49.924Z,80.40
2019-01-27T13:06:18.120Z,80.30
2019-01-27T13:08:46.270Z,78.80
2019-01-27T13:11:15.454Z,79.40
2019-01-27T13:13:43.619Z,79.10
2019-01-27T13:16:11.796Z,78.70
2019-01-27T13:18:40.259Z,79.40
2019-01-27T13:21:08.455Z,79.40
2019-01-27T13:23:37.563Z,79.80
2019-01-27T13:26:06.746Z,79.20
2019-01-27T13:28:35.953Z,79.90
2019-01-27T13:31:04.198Z,79.30
2019-01-27T13:33:32.986Z,79.20
2019-01-27T13:36:01.185Z,80.00
2019-01-27T13:38:29.720Z,79.30
2019-01-27T13:40:57.937Z,80.20
2019-01-27T13:43:26.788Z,80.20
2019-01-27T13:45:55.006Z,80.60
2019-01-27T13:48:23.177Z,81.80
2019-01-27T13:50:51.359Z,83.00
2019-01-27T13:53:20.030Z,83.90
2019-01-27T13:55:49.223Z,84.40
2019-01-27T13:58:18.428Z,83.50
2019-01-27T14:00:47.629Z,83.30
2019-01-27T14:03:15.794Z,82.00
2019-01-27T14:05:44.273Z,86.70
2019-01-27T14:08:12.450Z,80.60
2019-01-27T14:10:40.644Z,87.70
2019-01-27T14:13:08.791Z,90.60
2019-01-27T14:15:37.371Z,90.60
2019-01-27T14:18:05.708Z,83.50
2019-01-27T14:20:33.857Z,76.10
2019-01-27T14:23:06.164Z,75.20
2019-01-27T14:25:34.772Z,76.40
2019-01-27T14:28:02.974Z,76.50
2019-01-27T14:30:33.792Z,78.50
2019-01-27T14:33:01.995Z,79.30
2019-01-27T14:35:30.142Z,78.60
2019-01-27T14:37:58.931Z,78.10
2019-01-27T14:40:28.933Z,78.10
2019-01-27T14:42:57.124Z,79.00
2019-01-27T14:45:27.099Z,78.90
2019-01-27T14:47:55.633Z,80.00
2019-01-27T14:50:27.872Z,78.70
2019-01-27T14:52:56.073Z,78.00
2019-01-27T14:55:25.325Z,77.70
2019-01-27T14:57:53.934Z,77.70
2019-01-27T15:00:24.985Z,77.50
2019-01-27T15:02:53.156Z,75.60
2019-01-27T15:05:21.344Z,77.50
2019-01-27T15:07:49.508Z,77.40
2019-01-27T15:10:18.563Z,77.40
2019-01-27T15:12:46.825Z,76.10
2019-01-27T15:15:17.081Z,76.00
2019-01-27T15:17:45.283Z,76.40
2019-01-27T15:20:22.485Z,76.40
2019-01-27T15:22:50.624Z,76.90
2019-01-27T15:25:24.554Z,76.70
2019-01-27T15:27:52.726Z,76.50
2019-01-27T15:30:25.188Z,76.50
2019-01-27T15:32:53.392Z,78.50
2019-01-27T15:35:21.549Z,79.20
2019-01-27T15:37:49.970Z,79.20
2019-01-27T15:40:20.193Z,79.10
2019-01-27T15:42:48.799Z,80.60
2019-01-27T15:45:20.575Z,80.70
2019-01-27T15:47:48.764Z,80.80
2019-01-27T15:50:20.034Z,80.60
2019-01-27T15:52:48.240Z,80.10
2019-01-27T15:55:17.357Z,81.40
2019-01-27T15:57:51.848Z,79.00
2019-01-27T16:00:22.478Z,78.50
2019-01-27T16:02:50.673Z,79.10
2019-01-27T16:05:19.616Z,78.80
2019-01-27T16:07:49.135Z,78.50
2019-01-27T16:10:21.252Z,78.10
2019-01-27T16:12:49.440Z,77.90
2019-01-27T16:15:19.875Z,77.90
2019-01-27T16:17:48.022Z,78.60
2019-01-27T16:20:16.400Z,78.80
2019-01-27T16:22:52.990Z,78.90
2019-01-27T16:25:21.143Z,79.30
2019-01-27T16:27:49.586Z,79.10
2019-01-27T16:30:37.069Z,79.10
2019-01-27T16:33:08.521Z,79.60
2019-01-27T16:35:36.706Z,80.30
2019-01-27T16:38:04.842Z,81.00
2019-01-27T16:40:33.016Z,80.80
2019-01-27T16:43:01.186Z,81.60
2019-01-27T16:45:29.667Z,82.20
2019-01-27T16:47:57.844Z,82.30
2019-01-27T16:50:27.056Z,82.60
2019-01-27T16:52:55.212Z,82.30
2019-01-27T16:55:23.428Z,82.00
2019-01-27T16:57:51.795Z,81.80
2019-01-27T17:00:24.341Z,80.90
2019-01-27T17:02:54.978Z,81.50
2019-01-27T17:05:23.160Z,81.70
2019-01-27T17:07:51.317Z,81.80
2019-01-27T17:10:19.732Z,82.30
2019-01-27T17:12:48.115Z,82.50
2019-01-27T17:15:17.580Z,81.90
2019-01-27T17:17:45.814Z,82.00
2019-01-27T17:20:15.666Z,81.60
2019-01-27T17:22:43.947Z,81.90
2019-01-27T17:25:12.129Z,81.90
2019-01-27T17:27:40.362Z,82.20
2019-01-27T17:30:11.332Z,83.30
2019-01-27T17:32:39.539Z,83.10
2019-01-27T17:35:09.201Z,82.90
2019-01-27T17:37:37.305Z,82.20
2019-01-27T17:40:06.687Z,82.50
2019-01-27T17:42:34.946Z,83.30
2019-01-27T17:45:05.602Z,82.80
2019-01-27T17:47:34.061Z,82.30
2019-01-27T17:50:02.450Z,82.20
2019-01-27T17:52:30.736Z,82.20
2019-01-27T17:54:58.899Z,81.70
2019-01-27T17:57:53.029Z,81.70
2019-01-27T18:00:52.476Z,81.50
2019-01-27T18:03:28.688Z,81.50
2019-01-27T18:06:03.837Z,81.70
2019-01-27T18:08:54.652Z,81.30
2019-01-27T18:11:35.167Z,80.80
2019-01-27T18:14:11.366Z,80.90
2019-01-27T18:16:39.785Z,80.70
2019-01-27T18:19:08.932Z,81.00
2019-01-27T18:21:37.139Z,81.00
2019-01-27T18:24:07.957Z,80.60
2019-01-27T18:26:36.174Z,80.60
2019-01-27T18:29:04.541Z,80.50
2019-01-27T18:31:33.049Z,80.10
2019-01-27T18:34:01.230Z,80.80
2019-01-27T18:36:29.383Z,79.90
2019-01-27T18:38:58.576Z,79.90
2019-01-27T18:41:26.759Z,79.70
2019-01-27T18:43:55.246Z,79.40
2019-01-27T18:46:23.412Z,81.30
2019-01-27T18:49:06.280Z,81.20
2019-01-27T18:51:34.392Z,81.50
2019-01-27T18:54:13.041Z,81.10
2019-01-27T18:57:00.457Z,81.40
2019-01-27T18:59:46.430Z,82.20
2019-01-27T19:02:30.806Z,82.20
2019-01-27T19:05:10.460Z,83.40
2019-01-27T19:07:51.216Z,83.50
2019-01-27T19:10:38.630Z,83.70
2019-01-27T19:13:21.802Z,83.10
2019-01-27T19:16:12.147Z,83.10
2019-01-27T19:19:17.813Z,84.00
2019-01-27T19:22:08.062Z,83.50
2019-01-27T19:24:53.863Z,84.30
2019-01-27T19:27:43.849Z,84.90
2019-01-27T19:30:23.845Z,85.60
2019-01-27T19:32:57.940Z,86.20
2019-01-27T19:36:00.373Z,85.10
2019-01-27T19:38:46.450Z,86.00
2019-01-27T19:41:37.296Z,85.80
2019-01-27T19:44:19.007Z,86.30
2019-01-27T19:47:01.506Z,85.80
2019-01-27T19:49:49.559Z,85.50
2019-01-27T19:52:45.679Z,84.90
2019-01-27T19:55:30.541Z,85.40
2019-01-27T19:58:27.886Z,86.10
2019-01-27T20:01:09.510Z,85.70
2019-01-27T20:04:05.514Z,85.70
2019-01-27T20:06:42.803Z,85.00
2019-01-27T20:09:28.690Z,84.90
2019-01-27T20:12:05.353Z,85.50
2019-01-27T20:14:51.761Z,84.40
2019-01-27T20:17:35.390Z,84.50
2019-01-27T20:20:13.823Z,83.20
2019-01-27T20:23:16.133Z,82.90
2019-01-27T20:26:15.380Z,83.60
2019-01-27T20:29:08.400Z,84.90
2019-01-27T20:31:49.248Z,86.50
2019-01-27T20:34:45.248Z,85.90
2019-01-27T20:37:30.143Z,86.50
2019-01-27T20:40:14.189Z,86.30
2019-01-27T20:42:57.888Z,86.40
2019-01-27T20:45:37.743Z,86.20
2019-01-27T20:48:24.173Z,87.10
2019-01-27T20:51:14.258Z,86.60
2019-01-27T20:53:51.290Z,87.40
2019-01-27T20:56:41.326Z,87.70
2019-01-27T20:59:20.054Z,87.60
2019-01-27T21:01:54.327Z,87.90
2019-01-27T21:04:41.331Z,88.10
2019-01-27T21:07:24.270Z,89.30
2019-01-27T21:10:04.609Z,89.50
2019-01-27T21:12:52.353Z,89.80
2019-01-27T21:15:44.033Z,88.80
2019-01-27T21:18:28.734Z,88.30
2019-01-27T21:20:58.766Z,87.80
2019-01-27T21:23:26.904Z,88.00
2019-01-27T21:25:55.069Z,88.80
2019-01-27T21:28:23.626Z,88.30
2019-01-27T21:30:51.922Z,88.00
2019-01-27T21:33:20.118Z,87.90
2019-01-27T21:35:48.368Z,89.00
2019-01-27T21:38:16.551Z,89.60
2019-01-27T21:40:44.721Z,90.00
2019-01-27T21:43:12.914Z,89.60
2019-01-27T21:45:41.066Z,89.20
2019-01-27T21:48:09.263Z,89.70
2019-01-27T21:50:37.415Z,90.10
2019-01-27T21:53:06.611Z,89.70
2019-01-27T21:55:34.784Z,88.90
2019-01-27T21:58:03.972Z,88.70
2019-01-27T22:00:32.155Z,88.40
2019-01-27T22:03:00.320Z,88.40
2019-01-27T22:05:28.515Z,88.20
2019-01-27T22:07:56.694Z,88.70
2019-01-27T22:10:25.131Z,88.60
2019-01-27T22:12:53.333Z,89.20
2019-01-27T22:15:21.580Z,89.40
2019-01-27T22:17:49.782Z,89.80
2019-01-27T22:20:21.023Z,90.10
2019-01-27T22:22:49.574Z,89.80
2019-01-27T22:25:17.785Z,89.90
2019-01-27T22:27:45.949Z,90.30
2019-01-27T22:30:18.775Z,90.90
2019-01-27T22:32:47.182Z,91.40
2019-01-27T22:35:15.311Z,91.60
2019-01-27T22:37:43.458Z,92.20
2019-01-27T22:40:12.358Z,92.40
2019-01-27T22:42:40.845Z,92.90
2019-01-27T22:45:10.044Z,92.60
2019-01-27T22:47:38.237Z,92.40
2019-01-27T22:50:08.498Z,91.90
2019-01-27T22:52:36.701Z,92.10
2019-01-27T22:55:05.382Z,92.40
2019-01-27T22:57:33.555Z,92.40
2019-01-27T23:00:03.428Z,92.30
2019-01-27T23:02:30.393Z,92.20
2019-01-27T23:05:00.251Z,92.20
2019-01-27T23:07:29.285Z,92.40
2019-01-27T23:09:57.484Z,92.60
2019-01-27T23:12:25.691Z,91.90
2019-01-27T23:14:53.840Z,91.70
2019-01-27T23:17:22.082Z,91.70
2019-01-27T23:19:50.898Z,92.00
2019-01-27T23:22:19.100Z,92.10
2019-01-27T23:24:47.249Z,91.50
2019-01-27T23:27:16.447Z,91.40
2019-01-27T23:29:44.628Z,91.50
2019-01-27T23:32:13.395Z,91.40
2019-01-27T23:34:41.590Z,91.90
2019-01-27T23:37:09.805Z,92.00
2019-01-27T23:39:38.202Z,91.40
2019-01-27T23:42:06.419Z,91.50
2019-01-27T23:44:35.264Z,91.40
2019-01-27T23:47:03.480Z,92.00
2019-01-27T23:49:31.657Z,92.10
2019-01-27T23:52:00.127Z,92.20
2019-01-27T23:54:28.275Z,92.40
2019-01-27T23:56:56.474Z,92.00
2019-01-27T23:59:24.644Z,92.00
